Clemson, SC

6:17 AM EDT on September 17, 2014 (GMT -0400)
CU Ent Dept | Change Station
CLOSE
Current Station
Personal Weather Station
Location: Clemson, SC
Elevation: 842 ft
Nearby Weather Stations

Elev 842 ft 34.68 °N, 82.83 °W | Updated 41 seconds ago

Mostly Cloudy
Mostly Cloudy
67.0 °F
Feels Like 67.0 °F
N
0.0
Wind Variable Wind from NNE
Gusts 2.0 mph

Today
High -- | Low -- °F
--% Chance of Precip.
Yesterday
High -- | Low -- °F
Precip. -- in
7:15 AM 7:35 PM
Last Quarter, 37% visible
Pressure 29.94 in
Visibility 10.0 miles
Clouds Scattered Clouds 4900 ft
Mostly Cloudy 6500 ft
Dew Point 67 °F
Humidity 100%
Rainfall 0.00 in
Snow Depth Not available.
UV 0 out of 12
Pollen 7.10 out of 12
Air Quality Not available.
Flu Activity Not available.
METAR KCEU 170954Z AUTO 35003KT 10SM SCT049 BKN065 24/18 A2997 RMK AO2 SLP138 T02390178

More Conditions Fewer Conditions

Pressure 29.94 in
Visibility 10.0 miles
Clouds Scattered Clouds 4900 ft
Mostly Cloudy 6500 ft
Dew Point 67 °F
Humidity 100%
Rainfall 0.00 in
Snow Depth Not available.
UV 0 out of 12
Pollen 7.10 out of 12
Air Quality Not available.
Flu Activity Not available.
METAR KCEU 170954Z AUTO 35003KT 10SM SCT049 BKN065 24/18 A2997 RMK AO2 SLP138 T02390178

More Conditions Fewer Conditions

10-Day Weather Forecast

Almanac

Astronomy

Sep. 17, 2014 Rise Set
Actual Time 7:15 AM EDT 7:35 PM EDT
Civil Twilight 6:50 AM EDT 8:00 PM EDT
Nautical Twilight 6:20 AM EDT 8:29 PM EDT
Astronomical Twilight 5:50 AM EDT 8:59 PM EDT
Moon 1:24 AM EDT 3:34 PM EDT
Length of Visible Light 13h 09m
Length of Day
12h 19m
Tomorrow will be 2m 9s shorter.
Last Quarter, 37% of the Moon is Illuminated
Today
Last Quarter
Sep 24
New
Oct 1
First Quarter
Oct 8
Full
Oct 15
Last Quarter

Today's Extremes

State Highs State Lows

Community

WunderPhotos

Upload Photos

1,753,991 photos uploaded!

Nearby

Air Quality

  Air Quality AQ Index Pollutant
Yesterday Good
OZONE
Yesterday Good
PM2.5
Wednesday Good
OZONE

Snow Depth

Station Depth Elevation
No new snow has been reported.

Earthquake Activity

City Distance Mag. Time & Date
No recent earthquake activity has been reported nearby.
Minimum magnitude displayed is 2.5.

Coastal Water Temperatures

Place Temperature
No Stations Reporting

Nearby Weather Stations